sensor_id;sensor_type;location;lat;lon;timestamp;P1;durP1;ratioP1;P2;durP2;ratioP2
28246;SDS011;66191;53.178;22.058;2023-01-24T00:01:55;88.95;;;31.50;;
28246;SDS011;66191;53.178;22.058;2023-01-24T00:06:59;83.88;;;28.13;;
28246;SDS011;66191;53.178;22.058;2023-01-24T00:12:02;83.53;;;28.27;;
28246;SDS011;66191;53.178;22.058;2023-01-24T00:14:33;87.35;;;29.73;;
28246;SDS011;66191;53.178;22.058;2023-01-24T00:17:04;84.95;;;30.20;;
28246;SDS011;66191;53.178;22.058;2023-01-24T00:22:09;88.47;;;30.08;;
28246;SDS011;66191;53.178;22.058;2023-01-24T00:24:41;82.63;;;27.58;;
28246;SDS011;66191;53.178;22.058;2023-01-24T00:27:14;81.40;;;29.70;;
28246;SDS011;66191;53.178;22.058;2023-01-24T00:29:45;84.97;;;29.92;;
28246;SDS011;66191;53.178;22.058;2023-01-24T00:32:17;89.07;;;29.73;;
28246;SDS011;66191;53.178;22.058;2023-01-24T00:37:23;87.47;;;29.10;;
28246;SDS011;66191;53.178;22.058;2023-01-24T00:39:54;92.95;;;32.70;;
28246;SDS011;66191;53.178;22.058;2023-01-24T00:42:26;99.35;;;31.83;;
28246;SDS011;66191;53.178;22.058;2023-01-24T00:44:57;98.82;;;31.80;;
28246;SDS011;66191;53.178;22.058;2023-01-24T00:47:28;94.60;;;32.70;;
28246;SDS011;66191;53.178;22.058;2023-01-24T00:50:02;99.30;;;32.80;;
28246;SDS011;66191;53.178;22.058;2023-01-24T00:52:36;84.75;;;29.73;;
28246;SDS011;66191;53.178;22.058;2023-01-24T00:57:38;98.90;;;31.70;;
28246;SDS011;66191;53.178;22.058;2023-01-24T01:00:09;105.82;;;32.95;;
28246;SDS011;66191;53.178;22.058;2023-01-24T01:02:42;90.15;;;30.67;;
28246;SDS011;66191;53.178;22.058;2023-01-24T01:05:17;88.05;;;29.85;;
28246;SDS011;66191;53.178;22.058;2023-01-24T01:07:48;80.32;;;28.15;;
28246;SDS011;66191;53.178;22.058;2023-01-24T01:12:51;87.28;;;29.73;;
28246;SDS011;66191;53.178;22.058;2023-01-24T01:17:52;83.63;;;28.40;;
28246;SDS011;66191;53.178;22.058;2023-01-24T01:20:27;89.70;;;28.77;;
28246;SDS011;66191;53.178;22.058;2023-01-24T01:22:58;85.95;;;28.88;;
28246;SDS011;66191;53.178;22.058;2023-01-24T01:25:29;78.10;;;28.30;;
28246;SDS011;66191;53.178;22.058;2023-01-24T01:28:00;84.20;;;29.15;;
28246;SDS011;66191;53.178;22.058;2023-01-24T01:30:31;70.35;;;27.73;;
28246;SDS011;66191;53.178;22.058;2023-01-24T01:33:02;84.38;;;30.70;;
28246;SDS011;66191;53.178;22.058;2023-01-24T01:38:07;90.20;;;28.70;;
28246;SDS011;66191;53.178;22.058;2023-01-24T01:40:38;78.15;;;27.23;;
28246;SDS011;66191;53.178;22.058;2023-01-24T01:43:10;91.40;;;31.15;;
28246;SDS011;66191;53.178;22.058;2023-01-24T01:45:44;81.38;;;27.65;;
28246;SDS011;66191;53.178;22.058;2023-01-24T01:48:21;81.28;;;29.55;;
28246;SDS011;66191;53.178;22.058;2023-01-24T01:50:59;83.55;;;28.95;;
28246;SDS011;66191;53.178;22.058;2023-01-24T01:53:36;81.70;;;30.65;;
28246;SDS011;66191;53.178;22.058;2023-01-24T01:56:12;74.70;;;25.73;;
28246;SDS011;66191;53.178;22.058;2023-01-24T01:58:48;90.50;;;30.60;;
28246;SDS011;66191;53.178;22.058;2023-01-24T02:03:51;81.00;;;29.40;;
28246;SDS011;66191;53.178;22.058;2023-01-24T02:06:37;80.35;;;29.70;;
28246;SDS011;66191;53.178;22.058;2023-01-24T02:09:16;84.10;;;29.60;;
28246;SDS011;66191;53.178;22.058;2023-01-24T02:11:51;84.57;;;30.05;;
28246;SDS011;66191;53.178;22.058;2023-01-24T02:14:26;83.82;;;30.15;;
28246;SDS011;66191;53.178;22.058;2023-01-24T02:17:10;83.22;;;29.10;;
28246;SDS011;66191;53.178;22.058;2023-01-24T02:22:37;65.97;;;25.65;;
28246;SDS011;66191;53.178;22.058;2023-01-24T02:25:15;86.97;;;29.00;;
28246;SDS011;66191;53.178;22.058;2023-01-24T02:27:55;76.18;;;28.10;;
28246;SDS011;66191;53.178;22.058;2023-01-24T02:30:26;76.50;;;26.73;;
28246;SDS011;66191;53.178;22.058;2023-01-24T02:32:58;91.00;;;31.35;;
28246;SDS011;66191;53.178;22.058;2023-01-24T02:35:30;86.43;;;31.70;;
28246;SDS011;66191;53.178;22.058;2023-01-24T02:38:03;73.05;;;27.42;;
28246;SDS011;66191;53.178;22.058;2023-01-24T02:40:36;66.97;;;25.15;;
28246;SDS011;66191;53.178;22.058;2023-01-24T02:43:12;78.05;;;27.75;;
28246;SDS011;66191;53.178;22.058;2023-01-24T02:45:45;68.22;;;25.95;;
28246;SDS011;66191;53.178;22.058;2023-01-24T02:48:15;82.38;;;30.45;;
28246;SDS011;66191;53.178;22.058;2023-01-24T02:50:47;67.32;;;26.83;;
28246;SDS011;66191;53.178;22.058;2023-01-24T02:53:30;73.55;;;26.83;;
28246;SDS011;66191;53.178;22.058;2023-01-24T02:56:02;71.70;;;27.85;;
28246;SDS011;66191;53.178;22.058;2023-01-24T02:58:50;70.15;;;26.90;;
28246;SDS011;66191;53.178;22.058;2023-01-24T03:01:22;76.20;;;28.80;;
28246;SDS011;66191;53.178;22.058;2023-01-24T03:03:54;83.47;;;29.52;;
28246;SDS011;66191;53.178;22.058;2023-01-24T03:06:27;75.85;;;28.25;;
28246;SDS011;66191;53.178;22.058;2023-01-24T03:08:58;68.30;;;26.38;;
28246;SDS011;66191;53.178;22.058;2023-01-24T03:11:48;86.47;;;28.95;;
28246;SDS011;66191;53.178;22.058;2023-01-24T03:14:22;65.35;;;26.55;;
28246;SDS011;66191;53.178;22.058;2023-01-24T03:17:05;66.90;;;24.70;;
28246;SDS011;66191;53.178;22.058;2023-01-24T03:19:49;74.90;;;28.70;;
28246;SDS011;66191;53.178;22.058;2023-01-24T03:22:32;70.35;;;26.83;;
28246;SDS011;66191;53.178;22.058;2023-01-24T03:25:16;88.50;;;29.48;;
28246;SDS011;66191;53.178;22.058;2023-01-24T03:28:02;80.40;;;28.85;;
28246;SDS011;66191;53.178;22.058;2023-01-24T03:30:48;69.30;;;26.30;;
28246;SDS011;66191;53.178;22.058;2023-01-24T03:33:34;84.32;;;31.23;;
28246;SDS011;66191;53.178;22.058;2023-01-24T03:36:17;74.90;;;27.58;;
28246;SDS011;66191;53.178;22.058;2023-01-24T03:38:56;92.07;;;31.48;;
28246;SDS011;66191;53.178;22.058;2023-01-24T03:41:40;66.82;;;24.95;;
28246;SDS011;66191;53.178;22.058;2023-01-24T03:44:11;81.03;;;29.00;;
28246;SDS011;66191;53.178;22.058;2023-01-24T03:46:45;78.78;;;28.50;;
28246;SDS011;66191;53.178;22.058;2023-01-24T03:49:16;80.47;;;28.13;;
28246;SDS011;66191;53.178;22.058;2023-01-24T03:52:00;75.93;;;29.65;;
28246;SDS011;66191;53.178;22.058;2023-01-24T03:54:44;67.88;;;26.70;;
28246;SDS011;66191;53.178;22.058;2023-01-24T03:59:45;74.68;;;27.65;;
28246;SDS011;66191;53.178;22.058;2023-01-24T04:04:50;66.85;;;26.38;;
28246;SDS011;66191;53.178;22.058;2023-01-24T04:07:33;65.88;;;27.17;;
28246;SDS011;66191;53.178;22.058;2023-01-24T04:10:07;60.63;;;24.05;;
28246;SDS011;66191;53.178;22.058;2023-01-24T04:12:41;71.10;;;27.08;;
28246;SDS011;66191;53.178;22.058;2023-01-24T04:15:15;64.35;;;25.50;;
28246;SDS011;66191;53.178;22.058;2023-01-24T04:17:56;62.83;;;24.33;;
28246;SDS011;66191;53.178;22.058;2023-01-24T04:20:30;66.80;;;25.90;;
28246;SDS011;66191;53.178;22.058;2023-01-24T04:23:04;55.08;;;23.05;;
28246;SDS011;66191;53.178;22.058;2023-01-24T04:25:38;63.58;;;26.05;;
28246;SDS011;66191;53.178;22.058;2023-01-24T04:28:09;62.35;;;24.63;;
28246;SDS011;66191;53.178;22.058;2023-01-24T04:30:40;56.42;;;23.73;;
28246;SDS011;66191;53.178;22.058;2023-01-24T04:33:28;74.38;;;29.13;;
28246;SDS011;66191;53.178;22.058;2023-01-24T04:35:59;67.60;;;25.83;;
28246;SDS011;66191;53.178;22.058;2023-01-24T04:41:05;63.53;;;25.02;;
28246;SDS011;66191;53.178;22.058;2023-01-24T04:43:40;60.45;;;24.27;;
28246;SDS011;66191;53.178;22.058;2023-01-24T04:46:12;66.00;;;26.70;;
28246;SDS011;66191;53.178;22.058;2023-01-24T04:48:53;67.05;;;26.50;;
28246;SDS011;66191;53.178;22.058;2023-01-24T04:51:35;65.35;;;25.10;;
28246;SDS011;66191;53.178;22.058;2023-01-24T04:54:13;68.68;;;26.85;;
28246;SDS011;66191;53.178;22.058;2023-01-24T04:56:47;70.20;;;27.20;;
28246;SDS011;66191;53.178;22.058;2023-01-24T05:01:50;61.50;;;23.42;;
28246;SDS011;66191;53.178;22.058;2023-01-24T05:04:43;85.43;;;30.90;;
28246;SDS011;66191;53.178;22.058;2023-01-24T05:07:15;94.47;;;33.65;;
28246;SDS011;66191;53.178;22.058;2023-01-24T05:09:54;108.90;;;36.13;;
28246;SDS011;66191;53.178;22.058;2023-01-24T05:12:26;96.63;;;34.20;;
28246;SDS011;66191;53.178;22.058;2023-01-24T05:15:01;96.35;;;33.15;;
28246;SDS011;66191;53.178;22.058;2023-01-24T05:17:33;99.22;;;33.65;;
28246;SDS011;66191;53.178;22.058;2023-01-24T05:20:08;74.57;;;27.92;;
28246;SDS011;66191;53.178;22.058;2023-01-24T05:22:40;77.90;;;28.50;;
28246;SDS011;66191;53.178;22.058;2023-01-24T05:25:15;69.32;;;28.20;;
28246;SDS011;66191;53.178;22.058;2023-01-24T05:27:47;69.43;;;26.70;;
28246;SDS011;66191;53.178;22.058;2023-01-24T05:30:18;66.22;;;26.45;;
28246;SDS011;66191;53.178;22.058;2023-01-24T05:32:54;67.93;;;26.15;;
28246;SDS011;66191;53.178;22.058;2023-01-24T05:35:29;63.80;;;27.85;;
28246;SDS011;66191;53.178;22.058;2023-01-24T05:38:00;64.38;;;29.67;;
28246;SDS011;66191;53.178;22.058;2023-01-24T05:40:32;61.97;;;27.27;;
28246;SDS011;66191;53.178;22.058;2023-01-24T05:43:05;67.80;;;29.45;;
28246;SDS011;66191;53.178;22.058;2023-01-24T05:45:36;69.60;;;29.42;;
28246;SDS011;66191;53.178;22.058;2023-01-24T05:48:08;67.57;;;29.25;;
28246;SDS011;66191;53.178;22.058;2023-01-24T05:50:42;65.43;;;29.27;;
28246;SDS011;66191;53.178;22.058;2023-01-24T05:53:14;70.40;;;30.25;;
28246;SDS011;66191;53.178;22.058;2023-01-24T05:55:45;50.08;;;22.83;;
28246;SDS011;66191;53.178;22.058;2023-01-24T05:58:17;53.33;;;23.77;;
28246;SDS011;66191;53.178;22.058;2023-01-24T06:00:56;44.00;;;20.50;;
28246;SDS011;66191;53.178;22.058;2023-01-24T06:03:38;54.20;;;24.08;;
28246;SDS011;66191;53.178;22.058;2023-01-24T06:06:13;49.70;;;26.83;;
28246;SDS011;66191;53.178;22.058;2023-01-24T06:08:46;49.95;;;24.95;;
28246;SDS011;66191;53.178;22.058;2023-01-24T06:11:20;54.63;;;24.90;;
28246;SDS011;66191;53.178;22.058;2023-01-24T06:14:04;60.63;;;26.55;;
28246;SDS011;66191;53.178;22.058;2023-01-24T06:16:35;84.32;;;35.20;;
28246;SDS011;66191;53.178;22.058;2023-01-24T06:19:07;101.75;;;41.15;;
28246;SDS011;66191;53.178;22.058;2023-01-24T06:21:48;83.40;;;34.00;;
28246;SDS011;66191;53.178;22.058;2023-01-24T06:24:25;83.00;;;33.83;;
28246;SDS011;66191;53.178;22.058;2023-01-24T06:27:17;78.15;;;29.27;;
28246;SDS011;66191;53.178;22.058;2023-01-24T06:29:48;94.78;;;35.42;;
28246;SDS011;66191;53.178;22.058;2023-01-24T06:32:23;73.35;;;29.20;;
28246;SDS011;66191;53.178;22.058;2023-01-24T06:35:09;92.63;;;35.00;;
28246;SDS011;66191;53.178;22.058;2023-01-24T06:37:50;90.68;;;30.73;;
28246;SDS011;66191;53.178;22.058;2023-01-24T06:40:22;96.60;;;32.63;;
28246;SDS011;66191;53.178;22.058;2023-01-24T06:42:54;154.52;;;43.75;;
28246;SDS011;66191;53.178;22.058;2023-01-24T06:45:26;102.28;;;34.60;;
28246;SDS011;66191;53.178;22.058;2023-01-24T06:50:30;106.38;;;36.25;;
28246;SDS011;66191;53.178;22.058;2023-01-24T06:53:04;108.38;;;36.33;;
28246;SDS011;66191;53.178;22.058;2023-01-24T06:55:35;114.70;;;36.33;;
28246;SDS011;66191;53.178;22.058;2023-01-24T07:00:37;112.20;;;36.00;;
28246;SDS011;66191;53.178;22.058;2023-01-24T07:03:08;121.25;;;37.15;;
28246;SDS011;66191;53.178;22.058;2023-01-24T07:05:39;139.88;;;42.58;;
28246;SDS011;66191;53.178;22.058;2023-01-24T07:08:13;164.02;;;46.92;;
28246;SDS011;66191;53.178;22.058;2023-01-24T07:10:48;123.20;;;42.80;;
28246;SDS011;66191;53.178;22.058;2023-01-24T07:13:19;102.38;;;41.55;;
28246;SDS011;66191;53.178;22.058;2023-01-24T07:15:50;119.93;;;45.85;;
28246;SDS011;66191;53.178;22.058;2023-01-24T07:18:21;111.68;;;47.83;;
28246;SDS011;66191;53.178;22.058;2023-01-24T07:20:53;109.95;;;44.90;;
28246;SDS011;66191;53.178;22.058;2023-01-24T07:23:28;105.40;;;40.38;;
28246;SDS011;66191;53.178;22.058;2023-01-24T07:26:00;93.70;;;34.08;;
28246;SDS011;66191;53.178;22.058;2023-01-24T07:28:36;121.40;;;40.55;;
28246;SDS011;66191;53.178;22.058;2023-01-24T07:31:08;119.15;;;42.70;;
28246;SDS011;66191;53.178;22.058;2023-01-24T07:33:42;134.35;;;51.38;;
28246;SDS011;66191;53.178;22.058;2023-01-24T07:36:14;124.35;;;45.17;;
28246;SDS011;66191;53.178;22.058;2023-01-24T07:38:48;114.45;;;43.78;;
28246;SDS011;66191;53.178;22.058;2023-01-24T07:41:24;105.85;;;40.28;;
28246;SDS011;66191;53.178;22.058;2023-01-24T07:43:55;99.82;;;40.60;;
28246;SDS011;66191;53.178;22.058;2023-01-24T07:46:26;113.75;;;41.60;;
28246;SDS011;66191;53.178;22.058;2023-01-24T07:48:58;87.47;;;33.83;;
28246;SDS011;66191;53.178;22.058;2023-01-24T07:51:29;78.82;;;30.35;;
28246;SDS011;66191;53.178;22.058;2023-01-24T07:54:03;80.10;;;30.77;;
28246;SDS011;66191;53.178;22.058;2023-01-24T07:56:36;93.45;;;35.33;;
28246;SDS011;66191;53.178;22.058;2023-01-24T07:59:08;90.03;;;34.15;;
28246;SDS011;66191;53.178;22.058;2023-01-24T08:01:41;91.80;;;35.03;;
28246;SDS011;66191;53.178;22.058;2023-01-24T08:04:13;82.80;;;31.95;;
28246;SDS011;66191;53.178;22.058;2023-01-24T08:06:44;93.53;;;35.97;;
28246;SDS011;66191;53.178;22.058;2023-01-24T08:09:30;83.55;;;33.13;;
28246;SDS011;66191;53.178;22.058;2023-01-24T08:12:01;93.20;;;36.63;;
28246;SDS011;66191;53.178;22.058;2023-01-24T08:14:32;89.22;;;33.70;;
28246;SDS011;66191;53.178;22.058;2023-01-24T08:17:03;86.85;;;31.38;;
28246;SDS011;66191;53.178;22.058;2023-01-24T08:19:34;100.78;;;35.88;;
28246;SDS011;66191;53.178;22.058;2023-01-24T08:22:23;82.97;;;32.25;;
28246;SDS011;66191;53.178;22.058;2023-01-24T08:24:57;78.97;;;33.03;;
28246;SDS011;66191;53.178;22.058;2023-01-24T08:27:28;97.40;;;42.17;;
28246;SDS011;66191;53.178;22.058;2023-01-24T08:30:00;108.63;;;49.38;;
28246;SDS011;66191;53.178;22.058;2023-01-24T08:32:33;93.97;;;38.58;;
28246;SDS011;66191;53.178;22.058;2023-01-24T08:35:04;129.93;;;48.65;;
28246;SDS011;66191;53.178;22.058;2023-01-24T08:37:36;173.70;;;66.53;;
28246;SDS011;66191;53.178;22.058;2023-01-24T08:40:11;269.30;;;99.00;;
28246;SDS011;66191;53.178;22.058;2023-01-24T08:42:42;443.00;;;195.65;;
28246;SDS011;66191;53.178;22.058;2023-01-24T08:50:20;122.55;;;60.67;;
28246;SDS011;66191;53.178;22.058;2023-01-24T08:52:53;90.28;;;37.58;;
28246;SDS011;66191;53.178;22.058;2023-01-24T08:55:27;93.97;;;39.42;;
28246;SDS011;66191;53.178;22.058;2023-01-24T08:57:59;88.50;;;34.35;;
28246;SDS011;66191;53.178;22.058;2023-01-24T09:00:31;108.47;;;41.35;;
28246;SDS011;66191;53.178;22.058;2023-01-24T09:03:03;85.00;;;33.60;;
28246;SDS011;66191;53.178;22.058;2023-01-24T09:05:33;72.10;;;29.73;;
28246;SDS011;66191;53.178;22.058;2023-01-24T09:08:05;76.57;;;31.23;;
28246;SDS011;66191;53.178;22.058;2023-01-24T09:10:39;75.95;;;32.38;;
28246;SDS011;66191;53.178;22.058;2023-01-24T09:13:10;79.03;;;35.25;;
28246;SDS011;66191;53.178;22.058;2023-01-24T09:15:41;73.75;;;31.08;;
28246;SDS011;66191;53.178;22.058;2023-01-24T09:18:12;75.13;;;31.15;;
28246;SDS011;66191;53.178;22.058;2023-01-24T09:20:43;89.53;;;37.67;;
28246;SDS011;66191;53.178;22.058;2023-01-24T09:23:15;88.38;;;37.70;;
28246;SDS011;66191;53.178;22.058;2023-01-24T09:25:52;97.72;;;39.15;;
28246;SDS011;66191;53.178;22.058;2023-01-24T09:28:23;96.80;;;39.08;;
28246;SDS011;66191;53.178;22.058;2023-01-24T09:33:25;77.30;;;32.05;;
28246;SDS011;66191;53.178;22.058;2023-01-24T09:38:28;97.22;;;37.53;;
28246;SDS011;66191;53.178;22.058;2023-01-24T09:41:06;66.65;;;29.73;;
28246;SDS011;66191;53.178;22.058;2023-01-24T09:43:43;72.20;;;28.27;;
28246;SDS011;66191;53.178;22.058;2023-01-24T09:46:30;70.68;;;27.48;;
28246;SDS011;66191;53.178;22.058;2023-01-24T09:49:05;58.35;;;25.60;;
28246;SDS011;66191;53.178;22.058;2023-01-24T09:51:44;50.70;;;22.35;;
28246;SDS011;66191;53.178;22.058;2023-01-24T09:54:21;59.10;;;25.20;;
28246;SDS011;66191;53.178;22.058;2023-01-24T09:57:01;68.78;;;29.00;;
28246;SDS011;66191;53.178;22.058;2023-01-24T09:59:43;64.75;;;28.35;;
28246;SDS011;66191;53.178;22.058;2023-01-24T10:02:20;62.03;;;27.60;;
28246;SDS011;66191;53.178;22.058;2023-01-24T10:04:52;68.80;;;28.90;;
28246;SDS011;66191;53.178;22.058;2023-01-24T10:07:42;71.63;;;30.45;;
28246;SDS011;66191;53.178;22.058;2023-01-24T10:10:28;63.15;;;27.83;;
28246;SDS011;66191;53.178;22.058;2023-01-24T10:13:15;74.20;;;30.77;;
28246;SDS011;66191;53.178;22.058;2023-01-24T10:16:12;64.00;;;25.98;;
28246;SDS011;66191;53.178;22.058;2023-01-24T10:18:55;97.07;;;32.78;;
28246;SDS011;66191;53.178;22.058;2023-01-24T10:21:38;70.22;;;25.92;;
28246;SDS011;66191;53.178;22.058;2023-01-24T10:24:30;60.60;;;26.85;;
28246;SDS011;66191;53.178;22.058;2023-01-24T10:27:09;63.40;;;27.10;;
28246;SDS011;66191;53.178;22.058;2023-01-24T10:29:54;86.00;;;32.40;;
28246;SDS011;66191;53.178;22.058;2023-01-24T10:32:30;78.20;;;31.17;;
28246;SDS011;66191;53.178;22.058;2023-01-24T10:35:09;55.78;;;25.30;;
28246;SDS011;66191;53.178;22.058;2023-01-24T10:37:45;64.05;;;27.73;;
28246;SDS011;66191;53.178;22.058;2023-01-24T10:40:23;62.38;;;26.75;;
28246;SDS011;66191;53.178;22.058;2023-01-24T10:42:55;56.55;;;25.40;;
28246;SDS011;66191;53.178;22.058;2023-01-24T10:45:40;68.97;;;31.20;;
28246;SDS011;66191;53.178;22.058;2023-01-24T10:48:23;92.18;;;43.05;;
28246;SDS011;66191;53.178;22.058;2023-01-24T10:51:10;57.20;;;27.38;;
28246;SDS011;66191;53.178;22.058;2023-01-24T10:53:43;61.63;;;27.80;;
28246;SDS011;66191;53.178;22.058;2023-01-24T10:56:14;89.68;;;38.72;;
28246;SDS011;66191;53.178;22.058;2023-01-24T10:58:54;63.72;;;28.75;;
28246;SDS011;66191;53.178;22.058;2023-01-24T11:01:36;87.28;;;39.13;;
28246;SDS011;66191;53.178;22.058;2023-01-24T11:04:13;63.72;;;29.90;;
28246;SDS011;66191;53.178;22.058;2023-01-24T11:06:49;78.55;;;35.47;;
28246;SDS011;66191;53.178;22.058;2023-01-24T11:09:21;75.82;;;37.28;;
28246;SDS011;66191;53.178;22.058;2023-01-24T11:12:01;150.55;;;83.10;;
28246;SDS011;66191;53.178;22.058;2023-01-24T11:14:33;129.80;;;65.65;;
28246;SDS011;66191;53.178;22.058;2023-01-24T11:17:11;105.70;;;53.58;;
28246;SDS011;66191;53.178;22.058;2023-01-24T11:20:04;102.95;;;48.85;;
28246;SDS011;66191;53.178;22.058;2023-01-24T11:23:04;265.00;;;165.65;;
28246;SDS011;66191;53.178;22.058;2023-01-24T11:25:53;111.90;;;61.00;;
28246;SDS011;66191;53.178;22.058;2023-01-24T11:28:25;125.85;;;69.82;;
28246;SDS011;66191;53.178;22.058;2023-01-24T11:31:00;147.38;;;89.00;;
28246;SDS011;66191;53.178;22.058;2023-01-24T11:33:48;201.10;;;140.13;;
28246;SDS011;66191;53.178;22.058;2023-01-24T11:36:50;89.25;;;49.30;;
28246;SDS011;66191;53.178;22.058;2023-01-24T11:39:35;72.20;;;36.60;;
28246;SDS011;66191;53.178;22.058;2023-01-24T11:42:13;124.20;;;67.20;;
28246;SDS011;66191;53.178;22.058;2023-01-24T11:45:13;145.57;;;85.95;;
28246;SDS011;66191;53.178;22.058;2023-01-24T11:48:06;62.53;;;32.88;;
28246;SDS011;66191;53.178;22.058;2023-01-24T11:50:45;82.38;;;37.63;;
28246;SDS011;66191;53.178;22.058;2023-01-24T11:53:49;88.30;;;41.15;;
28246;SDS011;66191;53.178;22.058;2023-01-24T11:56:29;96.72;;;54.50;;
28246;SDS011;66191;53.178;22.058;2023-01-24T11:59:15;105.88;;;63.10;;
28246;SDS011;66191;53.178;22.058;2023-01-24T12:02:00;58.50;;;30.60;;
28246;SDS011;66191;53.178;22.058;2023-01-24T12:04:55;56.03;;;26.50;;
28246;SDS011;66191;53.178;22.058;2023-01-24T12:07:52;64.68;;;31.10;;
28246;SDS011;66191;53.178;22.058;2023-01-24T12:10:37;53.05;;;26.95;;
28246;SDS011;66191;53.178;22.058;2023-01-24T12:13:21;61.65;;;29.20;;
28246;SDS011;66191;53.178;22.058;2023-01-24T12:16:02;57.28;;;28.35;;
28246;SDS011;66191;53.178;22.058;2023-01-24T12:18:47;57.45;;;28.83;;
28246;SDS011;66191;53.178;22.058;2023-01-24T12:21:30;62.13;;;30.42;;
28246;SDS011;66191;53.178;22.058;2023-01-24T12:24:05;57.83;;;28.88;;
28246;SDS011;66191;53.178;22.058;2023-01-24T12:26:44;73.25;;;36.88;;
28246;SDS011;66191;53.178;22.058;2023-01-24T12:29:20;66.80;;;30.67;;
28246;SDS011;66191;53.178;22.058;2023-01-24T12:31:56;57.53;;;27.33;;
28246;SDS011;66191;53.178;22.058;2023-01-24T12:34:34;60.67;;;29.90;;
28246;SDS011;66191;53.178;22.058;2023-01-24T12:37:15;66.10;;;30.85;;
28246;SDS011;66191;53.178;22.058;2023-01-24T12:40:00;73.47;;;34.53;;
28246;SDS011;66191;53.178;22.058;2023-01-24T12:42:40;90.65;;;41.35;;
28246;SDS011;66191;53.178;22.058;2023-01-24T12:45:20;90.55;;;42.75;;
28246;SDS011;66191;53.178;22.058;2023-01-24T12:47:56;85.78;;;40.58;;
28246;SDS011;66191;53.178;22.058;2023-01-24T12:50:36;51.05;;;25.70;;
28246;SDS011;66191;53.178;22.058;2023-01-24T12:53:14;64.65;;;30.73;;
28246;SDS011;66191;53.178;22.058;2023-01-24T12:55:56;55.33;;;27.35;;
28246;SDS011;66191;53.178;22.058;2023-01-24T12:58:32;68.55;;;33.47;;
28246;SDS011;66191;53.178;22.058;2023-01-24T13:01:08;55.60;;;29.17;;
28246;SDS011;66191;53.178;22.058;2023-01-24T13:04:12;71.05;;;35.65;;
28246;SDS011;66191;53.178;22.058;2023-01-24T13:06:51;80.57;;;39.90;;
28246;SDS011;66191;53.178;22.058;2023-01-24T13:09:33;57.20;;;28.90;;
28246;SDS011;66191;53.178;22.058;2023-01-24T13:12:16;66.78;;;32.90;;
28246;SDS011;66191;53.178;22.058;2023-01-24T13:14:52;62.75;;;31.52;;
28246;SDS011;66191;53.178;22.058;2023-01-24T13:17:38;143.63;;;60.70;;
28246;SDS011;66191;53.178;22.058;2023-01-24T13:20:33;209.23;;;85.70;;
28246;SDS011;66191;53.178;22.058;2023-01-24T13:23:25;202.55;;;85.80;;
28246;SDS011;66191;53.178;22.058;2023-01-24T13:26:12;121.82;;;52.58;;
28246;SDS011;66191;53.178;22.058;2023-01-24T13:29:05;183.75;;;95.32;;
28246;SDS011;66191;53.178;22.058;2023-01-24T13:31:50;134.32;;;51.80;;
28246;SDS011;66191;53.178;22.058;2023-01-24T13:34:30;128.20;;;51.63;;
28246;SDS011;66191;53.178;22.058;2023-01-24T13:37:03;130.95;;;56.50;;
28246;SDS011;66191;53.178;22.058;2023-01-24T13:39:37;224.25;;;90.68;;
28246;SDS011;66191;53.178;22.058;2023-01-24T13:42:18;129.02;;;54.38;;
28246;SDS011;66191;53.178;22.058;2023-01-24T13:44:53;152.20;;;61.92;;
28246;SDS011;66191;53.178;22.058;2023-01-24T13:47:25;134.50;;;55.65;;
28246;SDS011;66191;53.178;22.058;2023-01-24T13:50:15;93.47;;;38.55;;
28246;SDS011;66191;53.178;22.058;2023-01-24T13:52:51;75.93;;;34.15;;
28246;SDS011;66191;53.178;22.058;2023-01-24T13:58:29;90.05;;;39.33;;
28246;SDS011;66191;53.178;22.058;2023-01-24T14:01:06;90.00;;;36.22;;
28246;SDS011;66191;53.178;22.058;2023-01-24T14:03:52;80.78;;;35.90;;
28246;SDS011;66191;53.178;22.058;2023-01-24T14:06:25;81.97;;;36.30;;
28246;SDS011;66191;53.178;22.058;2023-01-24T14:09:12;86.65;;;36.05;;
28246;SDS011;66191;53.178;22.058;2023-01-24T14:11:52;76.75;;;34.08;;
28246;SDS011;66191;53.178;22.058;2023-01-24T14:14:32;81.70;;;35.90;;
28246;SDS011;66191;53.178;22.058;2023-01-24T14:20:29;132.93;;;49.83;;
28246;SDS011;66191;53.178;22.058;2023-01-24T14:23:10;107.00;;;42.33;;
28246;SDS011;66191;53.178;22.058;2023-01-24T14:25:50;92.13;;;39.30;;
28246;SDS011;66191;53.178;22.058;2023-01-24T14:28:25;183.60;;;85.30;;
28246;SDS011;66191;53.178;22.058;2023-01-24T14:31:13;104.55;;;44.33;;
28246;SDS011;66191;53.178;22.058;2023-01-24T14:33:53;122.85;;;43.33;;
28246;SDS011;66191;53.178;22.058;2023-01-24T14:36:30;145.88;;;48.42;;
28246;SDS011;66191;53.178;22.058;2023-01-24T14:39:12;119.65;;;45.35;;
28246;SDS011;66191;53.178;22.058;2023-01-24T14:41:48;252.32;;;80.88;;
28246;SDS011;66191;53.178;22.058;2023-01-24T14:44:22;149.38;;;54.35;;
28246;SDS011;66191;53.178;22.058;2023-01-24T14:46:57;88.38;;;36.85;;
28246;SDS011;66191;53.178;22.058;2023-01-24T14:49:32;98.35;;;38.92;;
28246;SDS011;66191;53.178;22.058;2023-01-24T14:52:14;168.40;;;62.53;;
28246;SDS011;66191;53.178;22.058;2023-01-24T14:54:49;142.48;;;55.63;;
28246;SDS011;66191;53.178;22.058;2023-01-24T14:57:22;167.32;;;63.72;;
28246;SDS011;66191;53.178;22.058;2023-01-24T14:59:59;179.35;;;65.05;;
28246;SDS011;66191;53.178;22.058;2023-01-24T15:02:32;114.28;;;47.13;;
28246;SDS011;66191;53.178;22.058;2023-01-24T15:05:14;139.90;;;58.40;;
28246;SDS011;66191;53.178;22.058;2023-01-24T15:07:53;140.80;;;57.58;;
28246;SDS011;66191;53.178;22.058;2023-01-24T15:10:25;111.72;;;46.75;;
28246;SDS011;66191;53.178;22.058;2023-01-24T15:12:58;138.35;;;58.88;;
28246;SDS011;66191;53.178;22.058;2023-01-24T15:15:31;119.63;;;48.85;;
28246;SDS011;66191;53.178;22.058;2023-01-24T15:18:03;118.82;;;49.28;;
28246;SDS011;66191;53.178;22.058;2023-01-24T15:20:39;109.22;;;46.38;;
28246;SDS011;66191;53.178;22.058;2023-01-24T15:23:13;137.15;;;53.25;;
28246;SDS011;66191;53.178;22.058;2023-01-24T15:25:50;184.07;;;70.53;;
28246;SDS011;66191;53.178;22.058;2023-01-24T15:28:22;140.70;;;52.63;;
28246;SDS011;66191;53.178;22.058;2023-01-24T15:30:58;155.90;;;57.70;;
28246;SDS011;66191;53.178;22.058;2023-01-24T15:33:39;143.88;;;57.90;;
28246;SDS011;66191;53.178;22.058;2023-01-24T15:36:21;115.43;;;48.95;;
28246;SDS011;66191;53.178;22.058;2023-01-24T15:38:55;139.02;;;57.13;;
28246;SDS011;66191;53.178;22.058;2023-01-24T15:41:28;142.18;;;58.25;;
28246;SDS011;66191;53.178;22.058;2023-01-24T15:44:17;154.48;;;64.25;;
28246;SDS011;66191;53.178;22.058;2023-01-24T15:46:52;158.90;;;70.70;;
28246;SDS011;66191;53.178;22.058;2023-01-24T15:49:38;155.60;;;68.13;;
28246;SDS011;66191;53.178;22.058;2023-01-24T15:52:17;189.18;;;73.22;;
28246;SDS011;66191;53.178;22.058;2023-01-24T15:54:53;132.97;;;50.47;;
28246;SDS011;66191;53.178;22.058;2023-01-24T15:57:27;149.02;;;61.20;;
28246;SDS011;66191;53.178;22.058;2023-01-24T16:00:02;157.27;;;58.50;;